createdAt,value
2023-01-08T00:01:13.460Z,4.30
2023-01-08T00:03:49.023Z,3.60
2023-01-08T00:06:19.358Z,2.10
2023-01-08T00:08:47.640Z,2.40
2023-01-08T00:11:16.018Z,2.40
2023-01-08T00:13:44.177Z,2.30
2023-01-08T00:16:15.848Z,2.20
2023-01-08T00:18:45.933Z,2.20
2023-01-08T00:21:18.237Z,1.70
2023-01-08T00:23:47.257Z,2.30
2023-01-08T00:26:15.753Z,1.80
2023-01-08T00:28:43.892Z,2.30
2023-01-08T00:31:13.556Z,1.80
2023-01-08T00:33:42.215Z,1.70
2023-01-08T00:36:13.652Z,1.60
2023-01-08T00:38:43.277Z,1.60
2023-01-08T00:41:14.000Z,1.90
2023-01-08T00:43:42.157Z,2.10
2023-01-08T00:46:10.458Z,2.20
2023-01-08T00:48:39.210Z,2.60
2023-01-08T00:51:08.946Z,2.80
2023-01-08T00:53:37.654Z,2.80
2023-01-08T00:56:09.984Z,3.00
2023-01-08T00:58:38.376Z,2.40
2023-01-08T01:01:15.250Z,3.00
2023-01-08T01:03:43.567Z,2.70
2023-01-08T01:06:12.513Z,2.80
2023-01-08T01:08:40.875Z,3.30
2023-01-08T01:11:11.458Z,4.50
2023-01-08T01:13:39.644Z,5.60
2023-01-08T01:16:09.586Z,5.80
2023-01-08T01:18:37.661Z,6.60
2023-01-08T01:21:26.033Z,6.10
2023-01-08T01:26:24.693Z,6.60
2023-01-08T01:28:55.777Z,6.00
2023-01-08T01:31:25.189Z,6.10
2023-01-08T01:33:53.651Z,5.70
2023-01-08T01:36:23.730Z,5.60
2023-01-08T01:38:54.554Z,4.80
2023-01-08T01:41:29.573Z,5.20
2023-01-08T01:44:01.335Z,4.90
2023-01-08T01:46:36.985Z,4.90
2023-01-08T01:49:20.696Z,4.20
2023-01-08T01:51:53.823Z,4.90
2023-01-08T01:54:23.002Z,4.80
2023-01-08T01:56:51.311Z,4.70
2023-01-08T01:59:19.771Z,4.60
2023-01-08T02:01:48.355Z,5.70
2023-01-08T02:04:16.782Z,4.70
2023-01-08T02:06:54.408Z,4.70
2023-01-08T02:09:54.975Z,4.60
2023-01-08T02:12:26.206Z,5.10
2023-01-08T02:15:00.370Z,4.90
2023-01-08T02:17:44.573Z,6.80
2023-01-08T02:20:31.302Z,10.60
2023-01-08T02:23:13.211Z,12.10
2023-01-08T02:26:18.265Z,11.50
2023-01-08T02:28:52.880Z,11.50
2023-01-08T02:31:23.555Z,10.80
2023-01-08T02:33:51.825Z,11.20
2023-01-08T02:36:26.689Z,12.20
2023-01-08T02:39:06.866Z,13.70
2023-01-08T02:42:01.489Z,15.50
2023-01-08T02:44:35.667Z,14.00
2023-01-08T02:47:08.467Z,15.00
2023-01-08T02:49:42.878Z,14.30
2023-01-08T02:52:13.744Z,14.00
2023-01-08T02:54:44.640Z,13.00
2023-01-08T02:57:15.340Z,12.90
2023-01-08T02:59:46.724Z,13.60
2023-01-08T03:02:15.462Z,12.80
2023-01-08T03:04:53.067Z,12.30
2023-01-08T03:07:21.887Z,14.80
2023-01-08T03:09:50.125Z,13.20
2023-01-08T03:12:25.536Z,14.10
2023-01-08T03:15:04.576Z,16.20
2023-01-08T03:17:54.702Z,16.20
2023-01-08T03:20:25.260Z,14.90
2023-01-08T03:22:57.262Z,15.00
2023-01-08T03:25:28.498Z,15.50
2023-01-08T03:28:04.121Z,16.50
2023-01-08T03:30:33.849Z,13.10
2023-01-08T03:33:04.709Z,13.70
2023-01-08T03:35:35.185Z,15.50
2023-01-08T03:38:33.715Z,14.20
2023-01-08T03:41:07.047Z,16.00
2023-01-08T03:43:35.264Z,15.60
2023-01-08T03:46:08.311Z,15.30
2023-01-08T03:48:38.565Z,14.90
2023-01-08T03:51:11.128Z,14.80
2023-01-08T03:53:39.807Z,14.50
2023-01-08T03:56:08.170Z,13.50
2023-01-08T03:58:36.768Z,13.70
2023-01-08T04:01:05.260Z,13.90
2023-01-08T04:03:33.366Z,14.30
2023-01-08T04:06:01.537Z,15.50
2023-01-08T04:08:29.808Z,13.90
2023-01-08T04:10:57.901Z,13.50
2023-01-08T04:13:25.989Z,14.20
2023-01-08T04:15:54.405Z,14.90
2023-01-08T04:18:22.559Z,13.40
2023-01-08T04:20:50.743Z,12.80
2023-01-08T04:23:19.086Z,12.60
2023-01-08T04:25:47.247Z,9.00
2023-01-08T04:28:15.379Z,8.70
2023-01-08T04:30:44.090Z,8.30
2023-01-08T04:33:12.191Z,8.40
2023-01-08T04:35:40.346Z,7.50
2023-01-08T04:38:10.335Z,7.10
2023-01-08T04:40:39.968Z,8.10
2023-01-08T04:43:08.237Z,7.20
2023-01-08T04:45:36.379Z,7.90
2023-01-08T04:48:04.631Z,7.90
2023-01-08T04:50:33.421Z,8.10
2023-01-08T04:53:01.615Z,7.90
2023-01-08T04:55:29.775Z,7.40
2023-01-08T04:57:58.070Z,6.30
2023-01-08T05:00:26.337Z,6.30
2023-01-08T05:02:55.651Z,5.80
2023-01-08T05:05:24.319Z,5.30
2023-01-08T05:07:52.495Z,5.00
2023-01-08T05:10:20.622Z,4.70
2023-01-08T05:12:48.788Z,5.30
2023-01-08T05:15:17.150Z,4.10
2023-01-08T05:17:45.237Z,5.30
2023-01-08T05:20:14.080Z,5.00
2023-01-08T05:22:42.323Z,5.80
2023-01-08T05:25:10.713Z,5.30
2023-01-08T05:27:38.904Z,3.20
2023-01-08T05:30:07.928Z,5.50
2023-01-08T05:32:36.179Z,4.30
2023-01-08T05:35:04.975Z,5.70
2023-01-08T05:37:37.816Z,6.00
2023-01-08T05:40:06.991Z,5.60
2023-01-08T05:42:36.478Z,5.40
2023-01-08T05:45:07.091Z,6.00
2023-01-08T05:47:35.661Z,6.00
2023-01-08T05:50:04.068Z,6.20
2023-01-08T05:52:33.419Z,5.90
2023-01-08T05:55:01.613Z,6.20
2023-01-08T05:57:29.713Z,6.20
2023-01-08T05:59:57.980Z,6.60
2023-01-08T06:02:26.134Z,5.90
2023-01-08T06:04:54.379Z,6.60
2023-01-08T06:07:22.516Z,6.30
2023-01-08T06:09:50.645Z,6.40
2023-01-08T06:12:18.794Z,8.30
2023-01-08T06:14:47.112Z,8.20
2023-01-08T06:17:15.300Z,8.50
2023-01-08T06:19:43.620Z,8.00
2023-01-08T06:22:12.406Z,9.40
2023-01-08T06:24:40.601Z,8.70
2023-01-08T06:27:08.964Z,9.00
2023-01-08T06:29:37.215Z,9.10
2023-01-08T06:32:05.511Z,9.50
2023-01-08T06:34:33.571Z,9.70
2023-01-08T06:37:01.728Z,9.20
2023-01-08T06:39:29.843Z,9.30
2023-01-08T06:41:58.017Z,8.90
2023-01-08T06:44:26.281Z,8.50
2023-01-08T06:46:54.448Z,9.10
2023-01-08T06:49:22.578Z,8.20
2023-01-08T06:51:50.749Z,8.60
2023-01-08T06:54:19.351Z,9.30
2023-01-08T06:56:54.096Z,10.60
2023-01-08T06:59:22.816Z,10.60
2023-01-08T07:01:51.147Z,9.50
2023-01-08T07:04:20.167Z,9.60
2023-01-08T07:06:48.399Z,10.20
2023-01-08T07:09:16.625Z,9.90
2023-01-08T07:11:44.809Z,9.30
2023-01-08T07:14:13.533Z,8.80
2023-01-08T07:16:41.765Z,8.80
2023-01-08T07:19:10.369Z,9.10
2023-01-08T07:21:38.661Z,7.40
2023-01-08T07:24:07.231Z,7.60
2023-01-08T07:26:35.411Z,7.00
2023-01-08T07:29:03.728Z,7.60
2023-01-08T07:31:32.032Z,8.00
2023-01-08T07:34:00.358Z,8.30
2023-01-08T07:36:28.741Z,8.70
2023-01-08T07:38:57.097Z,7.90
2023-01-08T07:41:25.219Z,8.30
2023-01-08T07:43:53.439Z,8.30
2023-01-08T07:46:21.703Z,8.60
2023-01-08T07:48:49.795Z,8.60
2023-01-08T07:51:18.230Z,8.30
2023-01-08T07:53:46.363Z,8.60
2023-01-08T07:56:14.570Z,7.90
2023-01-08T07:58:43.078Z,7.80
2023-01-08T08:01:11.707Z,8.70
2023-01-08T08:03:40.732Z,9.20
2023-01-08T08:06:10.775Z,10.30
2023-01-08T08:08:42.074Z,9.60
2023-01-08T08:11:11.109Z,9.60
2023-01-08T08:13:39.797Z,9.20
2023-01-08T08:16:08.287Z,9.50
2023-01-08T08:18:37.309Z,8.50
2023-01-08T08:21:05.613Z,8.80
2023-01-08T08:23:35.812Z,9.40
2023-01-08T08:26:05.594Z,8.60
2023-01-08T08:28:33.866Z,9.00
2023-01-08T08:31:02.047Z,9.00
2023-01-08T08:33:30.224Z,8.70
2023-01-08T08:35:59.076Z,8.60
2023-01-08T08:38:27.587Z,8.50
2023-01-08T08:40:55.786Z,9.40
2023-01-08T08:43:23.966Z,9.10
2023-01-08T08:45:52.160Z,8.60
2023-01-08T08:48:20.571Z,9.90
2023-01-08T08:50:48.857Z,11.30
2023-01-08T08:53:17.041Z,12.30
2023-01-08T08:55:45.350Z,12.70
2023-01-08T08:58:13.893Z,13.50
2023-01-08T09:00:43.860Z,12.00
2023-01-08T09:03:16.624Z,12.80
2023-01-08T09:05:45.154Z,12.30
2023-01-08T09:08:13.857Z,12.50
2023-01-08T09:10:42.024Z,11.70
2023-01-08T09:13:10.795Z,12.50
2023-01-08T09:15:39.306Z,12.20
2023-01-08T09:18:07.921Z,12.70
2023-01-08T09:20:36.514Z,11.70
2023-01-08T09:23:05.172Z,12.80
2023-01-08T09:25:33.808Z,12.30
2023-01-08T09:28:04.146Z,12.20
2023-01-08T09:30:32.839Z,11.30
2023-01-08T09:33:03.161Z,11.60
2023-01-08T09:35:34.864Z,12.00
2023-01-08T09:38:03.897Z,12.00
2023-01-08T09:40:40.758Z,11.20
2023-01-08T09:43:17.685Z,11.40
2023-01-08T09:45:52.811Z,11.00
2023-01-08T09:48:26.129Z,9.90
2023-01-08T09:50:54.372Z,10.90
2023-01-08T09:53:22.601Z,10.60
2023-01-08T09:56:10.940Z,11.50
2023-01-08T09:58:44.593Z,12.30
2023-01-08T10:01:37.377Z,13.80
2023-01-08T10:04:20.271Z,14.00
2023-01-08T10:07:06.520Z,13.30
2023-01-08T10:09:34.679Z,12.80
2023-01-08T10:12:06.507Z,11.70
2023-01-08T10:14:37.429Z,11.70
2023-01-08T10:17:13.877Z,12.40
2023-01-08T10:19:42.425Z,12.40
2023-01-08T10:22:19.276Z,12.30
2023-01-08T10:24:48.217Z,13.10
2023-01-08T10:27:24.320Z,12.40
2023-01-08T10:29:53.161Z,12.20
2023-01-08T10:32:32.655Z,12.50
2023-01-08T10:35:05.448Z,12.80
2023-01-08T10:37:39.665Z,13.80
2023-01-08T10:40:40.959Z,15.40
2023-01-08T10:43:19.780Z,14.70
2023-01-08T10:45:58.504Z,14.70
2023-01-08T10:48:45.257Z,15.20
2023-01-08T10:51:25.411Z,14.60
2023-01-08T10:53:57.054Z,14.60
2023-01-08T10:56:31.027Z,12.70
2023-01-08T10:58:59.332Z,15.00
2023-01-08T11:01:30.760Z,14.50
2023-01-08T11:04:01.888Z,14.20
2023-01-08T11:06:33.654Z,13.70
2023-01-08T11:09:04.873Z,14.30
2023-01-08T11:11:35.642Z,14.10
2023-01-08T11:14:06.904Z,13.50
2023-01-08T11:16:41.418Z,12.40
2023-01-08T11:19:31.339Z,12.80
2023-01-08T11:22:06.901Z,13.00
2023-01-08T11:24:37.730Z,12.50
2023-01-08T11:27:27.927Z,12.80
2023-01-08T11:30:07.631Z,13.20
2023-01-08T11:32:54.024Z,14.30
2023-01-08T11:35:27.842Z,15.40
2023-01-08T11:38:01.893Z,13.80
2023-01-08T11:40:43.752Z,15.50
2023-01-08T11:43:31.029Z,15.20
2023-01-08T11:46:17.843Z,15.30
2023-01-08T11:48:49.177Z,16.90
2023-01-08T11:52:15.167Z,16.60
2023-01-08T11:55:02.125Z,17.80
2023-01-08T11:57:56.571Z,16.80
2023-01-08T12:00:42.977Z,16.40
2023-01-08T12:03:31.337Z,17.50
2023-01-08T12:06:14.716Z,16.40
2023-01-08T12:09:10.763Z,17.90
2023-01-08T12:12:09.805Z,17.20
2023-01-08T12:15:02.366Z,16.80
2023-01-08T12:18:01.092Z,17.30
2023-01-08T12:20:42.597Z,16.80
2023-01-08T12:23:39.974Z,15.90
2023-01-08T12:26:20.399Z,16.60
2023-01-08T12:29:09.612Z,17.00
2023-01-08T12:32:03.006Z,18.20
2023-01-08T12:34:40.355Z,19.10
2023-01-08T12:37:21.744Z,19.00
2023-01-08T12:40:15.406Z,18.10
2023-01-08T12:42:47.387Z,19.40
2023-01-08T12:45:29.202Z,19.80
2023-01-08T12:48:05.192Z,20.30
2023-01-08T12:50:58.550Z,19.50
2023-01-08T12:53:42.024Z,24.10
2023-01-08T12:56:22.136Z,23.20
2023-01-08T12:59:18.491Z,21.80
2023-01-08T13:02:01.279Z,19.40
2023-01-08T13:04:46.712Z,19.10
2023-01-08T13:07:42.445Z,18.00
2023-01-08T13:10:35.839Z,19.80
2023-01-08T13:13:06.063Z,19.70
2023-01-08T13:15:36.825Z,19.40
2023-01-08T13:18:20.483Z,19.70
2023-01-08T13:20:59.803Z,21.10
2023-01-08T13:23:31.816Z,21.80
2023-01-08T13:26:02.050Z,21.90
2023-01-08T13:28:44.990Z,19.60
2023-01-08T13:31:29.017Z,21.00
2023-01-08T13:33:57.251Z,20.20
2023-01-08T13:36:32.296Z,20.10
2023-01-08T13:39:10.162Z,19.00
2023-01-08T13:42:04.241Z,18.90
2023-01-08T13:44:40.260Z,19.30
2023-01-08T13:47:33.545Z,19.00
2023-01-08T13:50:13.266Z,18.00
2023-01-08T13:52:48.027Z,16.70
2023-01-08T13:55:27.809Z,13.80
2023-01-08T13:58:03.047Z,12.00
2023-01-08T14:00:43.698Z,11.60
2023-01-08T14:03:50.442Z,11.80
2023-01-08T14:06:24.732Z,12.30
2023-01-08T14:08:56.805Z,12.00
2023-01-08T14:11:37.076Z,11.70
2023-01-08T14:14:05.523Z,11.70
2023-01-08T14:16:37.659Z,10.30
2023-01-08T14:19:06.017Z,9.00
2023-01-08T14:21:34.636Z,7.60
2023-01-08T14:24:02.963Z,7.70
2023-01-08T14:26:37.130Z,7.10
2023-01-08T14:29:14.638Z,6.90
2023-01-08T14:31:47.628Z,6.70
2023-01-08T14:34:16.718Z,6.40
2023-01-08T14:36:45.418Z,6.90
2023-01-08T14:39:23.393Z,6.60
2023-01-08T14:41:55.472Z,7.30
2023-01-08T14:44:36.268Z,8.10
2023-01-08T14:47:16.195Z,8.00
2023-01-08T14:49:53.101Z,7.70
2023-01-08T14:52:22.080Z,8.50
2023-01-08T14:54:56.790Z,8.10
2023-01-08T14:57:27.374Z,9.10
2023-01-08T15:00:02.213Z,8.00
2023-01-08T15:02:34.805Z,8.70
2023-01-08T15:05:15.070Z,8.20
2023-01-08T15:07:55.182Z,7.80
2023-01-08T15:10:37.792Z,7.50
2023-01-08T15:13:07.499Z,6.10
2023-01-08T15:15:48.943Z,5.60
2023-01-08T15:18:18.877Z,5.60
2023-01-08T15:20:47.188Z,5.80
2023-01-08T15:23:42.959Z,5.50
2023-01-08T15:26:13.465Z,5.00
2023-01-08T15:29:02.494Z,5.40
2023-01-08T15:31:47.250Z,4.80
2023-01-08T15:34:19.493Z,4.80
2023-01-08T15:36:48.139Z,4.60
2023-01-08T15:39:16.401Z,4.30
2023-01-08T15:41:44.526Z,4.40
2023-01-08T15:44:12.615Z,4.40
2023-01-08T15:46:41.003Z,4.60
2023-01-08T15:49:09.483Z,4.20
2023-01-08T15:51:44.258Z,4.20
2023-01-08T15:54:13.695Z,4.00
2023-01-08T15:56:42.304Z,4.00
2023-01-08T15:59:10.569Z,4.00
2023-01-08T16:01:39.160Z,4.40
2023-01-08T16:04:07.987Z,4.50
2023-01-08T16:06:36.201Z,4.80
2023-01-08T16:09:04.596Z,4.30
2023-01-08T16:11:32.717Z,4.10
2023-01-08T16:14:00.918Z,4.30
2023-01-08T16:16:29.114Z,4.00
2023-01-08T16:18:59.181Z,4.30
2023-01-08T16:21:28.367Z,4.40
2023-01-08T16:23:56.773Z,4.20
2023-01-08T16:26:26.328Z,4.20
2023-01-08T16:28:54.472Z,4.30
2023-01-08T16:31:22.733Z,5.10
2023-01-08T16:33:50.830Z,4.70
2023-01-08T16:36:18.924Z,4.90
2023-01-08T16:38:49.338Z,5.00
2023-01-08T16:41:17.686Z,4.60
2023-01-08T16:43:45.844Z,5.50
2023-01-08T16:46:16.653Z,4.40
2023-01-08T16:48:45.523Z,4.80
2023-01-08T16:51:14.087Z,4.00
2023-01-08T16:53:42.943Z,4.40
2023-01-08T16:56:11.157Z,4.60
2023-01-08T16:58:39.296Z,5.80
2023-01-08T17:01:10.339Z,8.30
2023-01-08T17:03:38.941Z,6.20
2023-01-08T17:06:09.383Z,6.20
2023-01-08T17:08:37.666Z,6.40
2023-01-08T17:11:18.297Z,6.50
2023-01-08T17:13:47.303Z,7.10
2023-01-08T17:16:17.653Z,7.00
2023-01-08T17:18:46.468Z,5.60
2023-01-08T17:21:15.659Z,5.80
2023-01-08T17:23:44.630Z,7.00
2023-01-08T17:26:15.990Z,6.80
2023-01-08T17:28:44.893Z,6.70
2023-01-08T17:31:15.607Z,8.90
2023-01-08T17:33:44.191Z,10.00
2023-01-08T17:36:17.996Z,8.90
2023-01-08T17:38:47.032Z,8.30
2023-01-08T17:41:15.137Z,8.00
2023-01-08T17:43:43.345Z,7.70
2023-01-08T17:46:11.930Z,8.40
2023-01-08T17:48:45.020Z,8.60
2023-01-08T17:51:13.368Z,9.40
2023-01-08T17:53:41.553Z,9.80
2023-01-08T17:56:09.649Z,9.30
2023-01-08T17:58:38.011Z,10.40
2023-01-08T18:01:12.008Z,12.40
2023-01-08T18:03:41.001Z,13.60
2023-01-08T18:06:10.577Z,13.00
2023-01-08T18:08:39.266Z,13.90
2023-01-08T18:11:09.578Z,12.40
2023-01-08T18:13:38.296Z,14.50
2023-01-08T18:16:08.724Z,13.90
2023-01-08T18:18:38.231Z,14.60
2023-01-08T18:21:07.619Z,16.70
2023-01-08T18:23:35.887Z,15.10
2023-01-08T18:26:12.047Z,15.50
2023-01-08T18:28:40.682Z,14.30
2023-01-08T18:31:11.476Z,12.20
2023-01-08T18:33:40.877Z,14.70
2023-01-08T18:36:12.526Z,13.50
2023-01-08T18:38:43.191Z,12.50
2023-01-08T18:41:13.894Z,12.70
2023-01-08T18:43:42.035Z,10.80
2023-01-08T18:46:10.468Z,10.10
2023-01-08T18:48:38.953Z,8.80
2023-01-08T18:51:07.034Z,15.20
2023-01-08T18:53:35.612Z,15.50
2023-01-08T18:56:04.327Z,16.80
2023-01-08T18:58:32.501Z,17.10
2023-01-08T19:01:05.288Z,17.60
2023-01-08T19:03:34.103Z,17.90
2023-01-08T19:06:02.315Z,17.60
2023-01-08T19:08:30.793Z,27.40
2023-01-08T19:11:04.312Z,19.90
2023-01-08T19:13:32.749Z,18.40
2023-01-08T19:16:04.969Z,18.10
2023-01-08T19:18:33.902Z,20.00
2023-01-08T19:21:02.513Z,20.60
2023-01-08T19:23:30.666Z,20.20
2023-01-08T19:25:59.046Z,19.90
2023-01-08T19:28:27.414Z,18.80
2023-01-08T19:30:57.428Z,22.20
2023-01-08T19:33:26.297Z,22.30
2023-01-08T19:35:54.367Z,21.00
2023-01-08T19:38:22.562Z,20.70
2023-01-08T19:40:50.829Z,19.40
2023-01-08T19:43:18.982Z,18.60
2023-01-08T19:45:47.378Z,16.70
2023-01-08T19:48:15.592Z,18.50
2023-01-08T19:50:43.854Z,20.00
2023-01-08T19:53:14.530Z,20.00
2023-01-08T19:55:42.921Z,23.00
2023-01-08T19:58:11.059Z,21.20
2023-01-08T20:00:39.606Z,18.90
2023-01-08T20:03:08.324Z,18.50
2023-01-08T20:05:42.124Z,18.30
2023-01-08T20:08:11.095Z,18.90
2023-01-08T20:10:39.200Z,19.90
2023-01-08T20:13:07.480Z,19.20
2023-01-08T20:15:35.696Z,21.50
2023-01-08T20:18:04.653Z,23.40
2023-01-08T20:20:32.792Z,24.20
2023-01-08T20:23:01.454Z,25.20
2023-01-08T20:25:29.805Z,24.90
2023-01-08T20:27:58.058Z,24.90
2023-01-08T20:30:26.269Z,26.90
2023-01-08T20:32:54.477Z,24.50
2023-01-08T20:35:22.727Z,24.20
2023-01-08T20:37:51.239Z,23.90
2023-01-08T20:40:19.495Z,24.90
2023-01-08T20:42:47.647Z,24.70
2023-01-08T20:45:16.076Z,21.40
2023-01-08T20:47:44.326Z,19.40
2023-01-08T20:50:19.762Z,20.60
2023-01-08T20:52:48.921Z,17.30
2023-01-08T20:55:18.562Z,17.70
2023-01-08T20:57:47.041Z,14.80
2023-01-08T21:00:15.595Z,14.40
2023-01-08T21:02:43.817Z,14.50
2023-01-08T21:05:12.116Z,19.30
2023-01-08T21:07:40.477Z,19.70
2023-01-08T21:10:09.664Z,22.40
2023-01-08T21:12:37.852Z,21.60
2023-01-08T21:15:06.643Z,20.50
2023-01-08T21:17:35.295Z,20.60
2023-01-08T21:20:04.963Z,20.40
2023-01-08T21:22:33.176Z,17.10
2023-01-08T21:25:01.330Z,16.60
2023-01-08T21:27:29.725Z,13.20
2023-01-08T21:29:58.122Z,18.10
2023-01-08T21:32:26.226Z,15.80
2023-01-08T21:34:54.430Z,14.90
2023-01-08T21:37:23.074Z,14.40
2023-01-08T21:39:51.221Z,13.00
2023-01-08T21:42:19.413Z,12.20
2023-01-08T21:44:47.576Z,12.00
2023-01-08T21:47:18.271Z,11.40
2023-01-08T21:49:46.994Z,20.50
2023-01-08T21:52:15.547Z,19.70
2023-01-08T21:54:43.794Z,20.30
2023-01-08T21:57:11.939Z,19.40
2023-01-08T21:59:40.581Z,20.20
2023-01-08T22:02:14.370Z,18.90
2023-01-08T22:04:44.170Z,17.40
2023-01-08T22:07:13.064Z,17.90
2023-01-08T22:09:41.469Z,17.10
2023-01-08T22:12:09.750Z,16.90
2023-01-08T22:14:38.269Z,14.80
2023-01-08T22:17:06.532Z,14.40
2023-01-08T22:19:39.518Z,13.40
2023-01-08T22:22:10.742Z,13.50
2023-01-08T22:24:40.754Z,11.70
2023-01-08T22:27:09.375Z,10.70
2023-01-08T22:29:38.159Z,10.50
2023-01-08T22:32:06.848Z,11.40
2023-01-08T22:34:35.349Z,11.50
2023-01-08T22:37:03.594Z,11.30
2023-01-08T22:39:32.051Z,12.80
2023-01-08T22:42:00.662Z,12.20
2023-01-08T22:44:29.954Z,8.80
2023-01-08T22:46:58.228Z,6.80
2023-01-08T22:49:26.275Z,7.10
2023-01-08T22:51:54.436Z,6.40
2023-01-08T22:54:22.703Z,6.70
2023-01-08T22:56:51.308Z,6.50
2023-01-08T22:59:19.471Z,5.00
2023-01-08T23:01:47.872Z,4.60
2023-01-08T23:04:16.326Z,4.60
2023-01-08T23:06:44.550Z,4.60
2023-01-08T23:09:12.909Z,4.40
2023-01-08T23:11:41.089Z,4.20
2023-01-08T23:14:14.079Z,4.90
2023-01-08T23:16:43.072Z,4.50
2023-01-08T23:19:11.169Z,5.10
2023-01-08T23:21:39.420Z,5.50
2023-01-08T23:24:12.982Z,5.00
2023-01-08T23:26:41.848Z,5.10
2023-01-08T23:29:10.200Z,5.10
2023-01-08T23:31:39.099Z,5.20
2023-01-08T23:34:07.685Z,5.00
2023-01-08T23:36:35.995Z,5.10
2023-01-08T23:39:05.061Z,4.90
2023-01-08T23:41:35.087Z,4.90
2023-01-08T23:44:12.522Z,5.30
2023-01-08T23:46:40.982Z,4.60
2023-01-08T23:49:09.772Z,6.00
2023-01-08T23:51:38.139Z,6.60
2023-01-08T23:54:06.268Z,6.60
2023-01-08T23:56:34.783Z,5.90
2023-01-08T23:59:03.865Z,5.30
